Time;durP1;ratioP1;P1;durP2;ratioP2;P2;SDS_P1;SDS_P2;PMS_P1;PMS_P2;Temp;Humidity;BMP_temperature;BMP_pressure;BME280_temperature;BME280_humidity;BME280_pressure;Samples;Min_cycle;Max_cycle;Signal;HPM_P1;HPM_P2
2022/11/30 02:27:43;;;;;;;10.27;3.00;;;;;;;-4.02;100.00;101499.73;1742264;80;21042;-74
2022/11/30 02:30:15;;;;;;;11.77;2.83;;;;;;;-4.04;100.00;101502.88;1729774;80;21008;-75
2022/11/30 02:32:50;;;;;;;11.03;3.27;;;;;;;-4.06;100.00;101513.48;1712285;80;20983;-74
2022/11/30 02:35:21;;;;;;;5.83;2.43;;;;;;;-4.04;100.00;101506.84;1735048;80;21145;-74
2022/11/30 02:37:48;;;;;;;9.93;3.33;;;;;;;-4.02;100.00;101510.30;1718065;81;21609;-74
2022/11/30 02:40:17;;;;;;;5.23;2.80;;;;;;;-4.02;100.00;101513.84;1728796;80;21046;-74
2022/11/30 02:42:43;;;;;;;7.10;2.50;;;;;;;-4.01;100.00;101518.19;1735984;80;21023;-74
2022/11/30 02:45:11;;;;;;;12.33;3.13;;;;;;;-3.99;100.00;101520.80;1722309;82;21081;-75
2022/11/30 02:47:53;;;;;;;7.47;2.73;;;;;;;-3.98;100.00;101508.02;1703265;83;21046;-75
2022/11/30 02:50:33;;;;;;;6.93;2.97;;;;;;;-3.94;100.00;101512.30;1686530;84;21560;-75
2022/11/30 02:53:00;;;;;;;7.93;2.87;;;;;;;-3.94;100.00;101512.30;1735014;82;21131;-74
2022/11/30 02:55:26;;;;;;;7.93;2.60;;;;;;;-3.93;100.00;101506.11;1728227;81;21654;-74
2022/11/30 02:57:55;;;;;;;14.40;3.53;;;;;;;-3.91;100.00;101491.51;1671647;82;21477;-75
2022/11/30 03:00:24;;;;;;;12.97;3.60;;;;;;;-3.90;100.00;101495.89;1715271;82;21027;-74
2022/11/30 03:02:50;;;;;;;7.43;2.57;;;;;;;-3.92;100.00;101491.97;1726987;80;21038;-75
2022/11/30 03:05:17;;;;;;;4.80;2.43;;;;;;;-3.93;100.00;101479.69;1717633;81;21023;-75
2022/11/30 03:07:45;;;;;;;11.30;3.73;;;;;;;-3.90;100.00;101485.33;1739833;82;21033;-74
2022/11/30 03:10:12;;;;;;;7.80;2.80;;;;;;;-3.89;100.00;101478.68;1748869;81;21082;-75
2022/11/30 03:12:39;;;;;;;7.33;3.23;;;;;;;-3.90;100.00;101484.86;1722161;81;21051;-74
2022/11/30 03:15:06;;;;;;;9.80;2.77;;;;;;;-3.89;100.00;101486.61;1730321;82;21054;-74
2022/11/30 03:17:34;;;;;;;8.70;2.83;;;;;;;-3.90;100.00;101494.58;1736657;80;21049;-75
2022/11/30 03:20:03;;;;;;;6.77;2.67;;;;;;;-3.92;100.00;101484.05;1731844;81;21031;-74
2022/11/30 03:22:33;;;;;;;5.93;2.70;;;;;;;-3.94;100.00;101488.51;1719611;80;21041;-75
2022/11/30 03:25:01;;;;;;;10.30;2.93;;;;;;;-3.93;100.00;101490.26;1729238;81;21070;-75
2022/11/30 03:27:29;;;;;;;6.37;2.73;;;;;;;-3.91;100.00;101484.47;1754946;82;21026;-75
2022/11/30 03:29:57;;;;;;;6.53;3.03;;;;;;;-3.90;100.00;101490.14;1751542;81;21027;-75
2022/11/30 03:32:24;;;;;;;7.93;3.20;;;;;;;-3.87;100.00;101491.39;1711718;81;21058;-74
2022/11/30 03:34:52;;;;;;;8.37;3.03;;;;;;;-3.83;100.00;101494.81;1727631;81;21041;-75
2022/11/30 03:37:18;;;;;;;8.00;2.90;;;;;;;-3.82;100.00;101498.73;1723981;80;21095;-74
2022/11/30 03:39:46;;;;;;;9.27;3.37;;;;;;;-3.84;100.00;101490.45;1730758;81;21022;-75
2022/11/30 03:42:14;;;;;;;9.13;3.30;;;;;;;-3.84;100.00;101493.09;1733464;80;21091;-75
2022/11/30 03:44:43;;;;;;;6.97;2.77;;;;;;;-3.86;100.00;101494.45;1737169;80;21014;-75
2022/11/30 03:47:09;;;;;;;9.10;2.93;;;;;;;-3.86;100.00;101497.09;1751106;80;21153;-75
2022/11/30 03:49:37;;;;;;;7.80;3.10;;;;;;;-3.88;100.00;101486.14;1739832;81;21007;-73
2022/11/30 03:52:04;;;;;;;6.83;2.87;;;;;;;-3.90;100.00;101484.86;1746940;82;21057;-75
2022/11/30 03:54:31;;;;;;;5.70;2.83;;;;;;;-3.89;100.00;101485.75;1743102;82;21034;-74
2022/11/30 03:56:58;;;;;;;11.57;2.50;;;;;;;-3.87;100.00;101501.10;1714525;81;21010;-74
2022/11/30 03:59:25;;;;;;;9.53;3.13;;;;;;;-3.87;100.00;101492.71;1712293;81;20999;-75
2022/11/30 04:01:52;;;;;;;5.37;2.63;;;;;;;-3.85;100.00;101490.03;1744179;80;21038;-74
2022/11/30 04:04:18;;;;;;;10.77;3.10;;;;;;;-3.87;100.00;101483.46;1737915;80;21067;-75
2022/11/30 04:06:45;;;;;;;9.53;2.87;;;;;;;-3.88;100.00;101472.50;1725311;81;21055;-75
2022/11/30 04:09:12;;;;;;;6.87;2.73;;;;;;;-3.89;100.00;101477.36;1732110;81;21536;-76
2022/11/30 04:11:39;;;;;;;5.93;2.70;;;;;;;-3.90;100.00;101474.29;1712318;81;21054;-75
2022/11/30 04:14:06;;;;;;;3.67;2.90;;;;;;;-3.89;100.00;101467.25;1723647;80;21081;-75
2022/11/30 04:16:33;;;;;;;7.73;2.73;;;;;;;-3.87;100.00;101473.36;1720062;81;21083;-74
2022/11/30 04:18:59;;;;;;;8.30;2.53;;;;;;;-3.89;100.00;101473.39;1728544;81;20994;-75
2022/11/30 04:21:26;;;;;;;7.03;2.97;;;;;;;-3.87;100.00;101469.39;1753417;82;21081;-75
2022/11/30 04:23:54;;;;;;;5.77;2.43;;;;;;;-3.88;100.00;101465.89;1716621;81;21067;-75
2022/11/30 04:26:21;;;;;;;7.47;3.00;;;;;;;-3.87;100.00;101471.56;1721607;82;21500;-75
2022/11/30 04:28:47;;;;;;;5.67;2.63;;;;;;;-3.87;100.00;101477.31;1729350;80;21018;-75
2022/11/30 04:31:16;;;;;;;8.40;3.17;;;;;;;-3.87;100.00;101470.71;1727761;80;21117;-75
2022/11/30 04:33:42;;;;;;;3.13;2.20;;;;;;;-3.86;100.00;101468.03;1748910;82;21014;-75
2022/11/30 04:36:18;;;;;;;15.17;3.33;;;;;;;-3.88;100.00;101467.21;1712871;81;21135;-75
2022/11/30 04:38:46;;;;;;;7.33;3.23;;;;;;;-3.88;100.00;101452.67;1721693;80;21033;-75
2022/11/30 04:41:13;;;;;;;7.73;2.23;;;;;;;-3.88;100.00;101459.28;1754673;81;21029;-75
2022/11/30 04:43:40;;;;;;;9.13;2.83;;;;;;;-3.88;100.00;101452.67;1743951;80;21579;-75
2022/11/30 04:46:09;;;;;;;7.50;2.77;;;;;;;-3.87;100.00;101461.46;1719089;81;21010;-74
2022/11/30 04:48:36;;;;;;;8.07;3.10;;;;;;;-3.88;100.00;101457.07;1736858;81;21515;-74
2022/11/30 04:51:04;;;;;;;6.83;2.70;;;;;;;-3.89;100.00;101454.89;1734938;81;21010;-74
2022/11/30 04:53:34;;;;;;;4.53;2.73;;;;;;;-3.89;100.00;101471.22;1728855;81;21006;-75
2022/11/30 04:56:06;;;;;;;6.77;2.93;;;;;;;-3.88;100.00;101465.00;1676396;84;21011;-75
2022/11/30 04:58:33;;;;;;;8.43;2.77;;;;;;;-3.88;100.00;101468.53;1673628;84;21084;-75
2022/11/30 05:01:00;;;;;;;6.50;2.67;;;;;;;-3.88;100.00;101459.72;1660792;86;21050;-75
2022/11/30 05:03:27;;;;;;;8.40;2.73;;;;;;;-3.88;100.00;101463.25;1662476;86;21491;-75
2022/11/30 05:05:53;;;;;;;6.77;2.67;;;;;;;-3.88;100.00;101467.21;1612434;87;21042;-74
2022/11/30 05:08:21;;;;;;;6.00;3.13;;;;;;;-3.88;100.00;101474.25;1662078;86;21026;-75
2022/11/30 05:10:52;;;;;;;4.17;2.37;;;;;;;-3.88;100.00;101474.25;1660658;86;21058;-75
2022/11/30 05:13:20;;;;;;;6.40;2.80;;;;;;;-3.87;100.00;101478.64;1639870;86;21045;-75
2022/11/30 05:15:47;;;;;;;6.50;2.50;;;;;;;-3.87;100.00;101487.42;1659072;86;21073;-75
2022/11/30 05:18:14;;;;;;;7.30;3.33;;;;;;;-3.87;100.00;101502.42;1660290;86;21022;-75
2022/11/30 05:20:41;;;;;;;7.77;2.50;;;;;;;-3.87;100.00;101494.03;1632306;87;21154;-75
2022/11/30 05:23:07;;;;;;;5.10;2.53;;;;;;;-3.86;100.00;101499.74;1655276;86;21124;-75
2022/11/30 05:25:36;;;;;;;6.33;2.77;;;;;;;-3.85;100.00;101505.89;1657633;86;21061;-74
2022/11/30 05:28:03;;;;;;;11.10;3.17;;;;;;;-3.83;100.00;101511.53;1659103;86;21081;-75
2022/11/30 05:30:30;;;;;;;9.20;3.07;;;;;;;-3.84;100.00;101503.20;1659955;86;21531;-75
2022/11/30 05:32:57;;;;;;;10.70;3.33;;;;;;;-3.83;100.00;101504.06;1624446;86;21560;-75
2022/11/30 05:35:24;;;;;;;12.30;3.70;;;;;;;-3.83;100.00;101505.38;1658657;86;21081;-74
2022/11/30 05:37:50;;;;;;;7.10;2.90;;;;;;;-3.83;100.00;101498.31;1629447;86;21148;-74
2022/11/30 05:40:17;;;;;;;14.40;3.40;;;;;;;-3.83;100.00;101499.63;1660663;86;21086;-74
2022/11/30 05:42:46;;;;;;;6.93;3.33;;;;;;;-3.82;100.00;101497.88;1659918;86;21089;-76
2022/11/30 05:45:13;;;;;;;9.47;3.93;;;;;;;-3.80;100.00;101504.45;1617199;86;21057;-75
2022/11/30 05:47:40;;;;;;;6.63;2.80;;;;;;;-3.79;100.00;101507.02;1668531;84;21533;-74
2022/11/30 05:50:08;;;;;;;9.17;3.30;;;;;;;-3.79;100.00;101505.70;1647582;85;21026;-75
2022/11/30 05:52:35;;;;;;;7.40;3.13;;;;;;;-3.77;100.00;101500.38;1657227;86;21035;-74
2022/11/30 05:55:03;;;;;;;7.43;2.80;;;;;;;-3.75;100.00;101506.48;1639274;86;21083;-75
2022/11/30 05:57:33;;;;;;;10.10;3.47;;;;;;;-3.73;100.00;101494.97;1647532;85;21058;-74
2022/11/30 06:00:01;;;;;;;17.00;4.50;;;;;;;-3.70;100.00;101504.58;1624038;86;21505;-74
2022/11/30 06:02:29;;;;;;;14.20;4.87;;;;;;;-3.67;100.00;101492.59;1644861;85;21075;-74
2022/11/30 06:04:56;;;;;;;14.23;4.00;;;;;;;-3.64;100.00;101501.77;1644099;85;21071;-75
2022/11/30 06:07:23;;;;;;;9.33;3.00;;;;;;;-3.60;100.00;101496.80;1638131;84;21092;-75
2022/11/30 06:09:49;;;;;;;11.07;3.40;;;;;;;-3.58;100.00;101498.93;1713591;83;21029;-75
2022/11/30 06:12:16;;;;;;;7.43;2.90;;;;;;;-3.55;100.00;101490.06;1742675;80;21033;-75
2022/11/30 06:14:44;;;;;;;9.00;3.60;;;;;;;-3.53;100.00;101494.84;1745805;80;21006;-75
2022/11/30 06:17:11;;;;;;;5.23;2.50;;;;;;;-3.51;100.00;101496.98;1745879;81;21472;-74
2022/11/30 06:19:38;;;;;;;12.63;3.60;;;;;;;-3.50;100.00;101496.94;1749972;80;21561;-75
2022/11/30 08:59:49;;;;;;;8.03;3.50;;;;;;;0.50;100.00;100915.88;1722524;82;21567;-76
2022/11/30 09:02:17;;;;;;;12.17;4.20;;;;;;;0.54;100.00;100922.27;1705424;82;21516;-78
2022/11/30 09:04:46;;;;;;;5.60;3.43;;;;;;;0.53;100.00;100927.66;1754704;81;21005;-77
2022/11/30 09:07:12;;;;;;;7.87;2.80;;;;;;;0.49;100.00;100924.80;1772671;81;21042;-76
2022/11/30 09:09:39;;;;;;;9.90;3.57;;;;;;;0.38;100.00;100920.07;1767142;81;21052;-76
2022/11/30 09:12:07;;;;;;;10.60;3.67;;;;;;;0.28;100.00;100922.36;1743440;81;21042;-79
2022/11/30 09:14:33;;;;;;;11.93;3.83;;;;;;;0.21;100.00;100917.47;1752765;81;21029;-80
2022/11/30 09:17:00;;;;;;;5.87;2.97;;;;;;;0.18;100.00;100911.37;1749386;81;21021;-71
2022/11/30 09:19:27;;;;;;;5.10;2.77;;;;;;;0.24;100.00;100918.16;1742875;81;21064;-71
2022/11/30 09:21:53;;;;;;;14.93;4.70;;;;;;;0.26;100.00;100914.09;1732751;81;20998;-72
2022/11/30 09:24:20;;;;;;;13.77;4.63;;;;;;;0.27;100.00;100906.51;1740052;81;21060;-75
2022/11/30 09:26:50;;;;;;;9.10;3.43;;;;;;;0.28;100.00;100903.73;1740443;81;21010;-77
2022/11/30 09:29:17;;;;;;;12.70;3.17;;;;;;;0.28;100.00;100901.55;1690732;84;21574;-77
2022/11/30 09:31:44;;;;;;;14.27;4.53;;;;;;;0.26;100.00;100899.45;1664597;85;21015;-76
2022/11/30 09:34:11;;;;;;;13.03;4.03;;;;;;;0.23;100.00;100904.94;1688347;84;21030;-78
2022/11/30 09:36:37;;;;;;;8.23;3.47;;;;;;;0.22;100.00;100897.44;1693918;83;21036;-81
2022/11/30 09:39:05;;;;;;;9.97;3.10;;;;;;;0.20;100.00;100897.14;1692154;84;21047;-84
2022/11/30 09:42:00;;;;;;;15.73;4.60;;;;;;;0.19;100.00;100894.94;1685548;84;21539;-80
2022/11/30 09:44:52;;;;;;;20.37;4.30;;;;;;;0.24;100.00;100895.55;1693356;84;21043;-79
2022/11/30 09:47:40;;;;;;;10.47;3.53;;;;;;;0.26;100.00;100898.98;1694274;84;21061;-75
2022/11/30 09:50:20;;;;;;;10.20;3.60;;;;;;;0.38;100.00;100891.66;1693172;84;21098;-73
2022/11/30 09:52:55;;;;;;;7.07;2.87;;;;;;;0.63;100.00;100890.28;1693907;84;21510;-78
2022/11/30 09:55:26;;;;;;;10.10;2.67;;;;;;;0.98;100.00;100891.41;1612567;89;21512;-75
2022/11/30 09:58:00;;;;;;;9.43;3.10;;;;;;;1.28;100.00;100890.09;1602737;89;21139;-74
2022/11/30 10:00:26;;;;;;;;;;;;;;;1.48;100.00;100896.05;1605439;89;21043;-75
2022/11/30 10:02:56;;;;;;;9.27;2.90;;;;;;;1.65;100.00;100898.56;1603112;89;20134;-75
2022/11/30 10:05:45;;;;;;;15.20;3.53;;;;;;;1.74;100.00;100905.63;1601422;89;21078;-73
2022/11/30 14:19:08;;;;;;;16.27;5.37;;;;;;;1.01;100.00;100888.58;1816392;78;22241;-79
2022/11/30 14:21:35;;;;;;;12.93;5.13;;;;;;;1.08;100.00;100925.91;1792501;80;21016;-80
2022/11/30 14:24:20;;;;;;;15.33;5.07;;;;;;;1.13;100.00;100930.49;1793087;80;21047;-75
2022/11/30 14:26:49;;;;;;;19.07;4.97;;;;;;;1.17;100.00;100930.29;1726641;83;21162;-69
2022/11/30 14:29:34;;;;;;;12.03;4.60;;;;;;;1.23;100.00;100932.61;1725905;83;21077;-69
2022/11/30 14:32:14;;;;;;;9.07;3.53;;;;;;;1.26;100.00;100937.77;1732115;82;21151;-71
2022/11/30 14:34:44;;;;;;;8.83;2.20;;;;;;;1.32;100.00;100944.06;1695409;85;21078;-71
2022/11/30 14:37:32;;;;;;;11.53;3.60;;;;;;;1.37;100.00;100942.48;1678092;85;21600;-70
2022/11/30 14:40:07;;;;;;;11.50;3.83;;;;;;;1.38;100.00;100954.38;1666177;86;21123;-73
2022/11/30 14:42:35;;;;;;;9.77;2.83;;;;;;;1.39;100.00;100961.41;1666419;86;21047;-72
2022/11/30 14:45:02;;;;;;;9.07;3.23;;;;;;;1.39;100.00;100974.73;1672962;85;21000;-73
2022/11/30 14:47:33;;;;;;;15.03;4.07;;;;;;;1.38;100.00;100974.82;1672746;85;21055;-72
2022/11/30 14:50:03;;;;;;;11.37;3.70;;;;;;;1.35;100.00;100970.99;1670983;85;21069;-72
2022/11/30 14:53:10;;;;;;;10.47;3.63;;;;;;;1.30;100.00;100983.27;1666676;86;21099;-71
2022/11/30 14:55:48;;;;;;;11.63;3.87;;;;;;;1.24;100.00;100976.95;1662725;86;21079;-72
2022/11/30 14:58:50;;;;;;;6.23;2.97;;;;;;;1.16;100.00;100986.72;1666481;86;21064;-72
2022/11/30 15:01:23;;;;;;;8.67;2.93;;;;;;;1.12;100.00;100986.03;1665979;86;21107;-72
2022/11/30 15:03:53;;;;;;;6.42;2.50;;;;;;;1.10;100.00;100989.27;1666242;86;21545;-71
2022/11/30 15:06:27;;;;;;;7.87;2.57;;;;;;;1.12;100.00;101001.17;1665528;86;21091;-72
2022/11/30 15:08:55;;;;;;;11.93;3.77;;;;;;;1.12;100.00;100999.36;1665755;86;21016;-72
2022/11/30 15:11:21;;;;;;;8.33;2.60;;;;;;;1.14;100.00;101005.94;1680908;83;21023;-72
2022/11/30 15:13:55;;;;;;;9.87;3.00;;;;;;;1.15;100.00;101016.95;1726940;83;21023;-70
2022/11/30 15:16:29;;;;;;;9.37;2.97;;;;;;;1.17;100.00;101014.20;1669988;86;21209;-69
2022/11/30 15:18:58;;;;;;;8.05;2.90;;;;;;;1.14;100.00;101021.44;1664308;85;21541;-72
2022/11/30 15:21:30;;;;;;;7.57;2.70;;;;;;;1.14;100.00;101038.75;1658247;85;21033;-71
2022/11/30 15:23:59;;;;;;;6.42;2.65;;;;;;;1.13;100.00;101036.17;1661355;86;21147;-75
2022/11/30 15:26:37;;;;;;;5.97;2.40;;;;;;;1.12;100.00;101049.97;1674154;85;21070;-70
2022/11/30 15:29:27;;;;;;;3.47;2.53;;;;;;;1.11;100.00;101049.57;1677328;85;21069;-69
2022/11/30 15:31:55;;;;;;;9.60;3.10;;;;;;;1.10;100.00;101051.87;1677012;85;21105;-70
2022/11/30 15:34:36;;;;;;;15.83;2.63;;;;;;;1.09;100.00;101067.93;1678327;85;21034;-69
2022/11/30 15:37:02;;;;;;;5.90;2.70;;;;;;;1.07;100.00;101067.16;1679717;85;21058;-70
2022/11/30 15:39:29;;;;;;;5.13;2.30;;;;;;;1.06;100.00;101066.76;1679702;85;21046;-69
2022/11/30 15:42:01;;;;;;;5.73;2.47;;;;;;;1.06;100.00;101068.97;1679357;85;21093;-70
2022/11/30 15:44:44;;;;;;;7.00;2.87;;;;;;;1.03;100.00;101070.47;1678666;85;21097;-70
2022/11/30 15:47:25;;;;;;;5.83;2.23;;;;;;;1.01;100.00;101068.36;1679701;85;21602;-70
2022/11/30 15:49:53;;;;;;;10.37;2.57;;;;;;;1.00;100.00;101061.30;1679766;85;21045;-69
2022/11/30 15:52:25;;;;;;;6.20;2.43;;;;;;;0.99;100.00;101066.23;1679601;85;21100;-70
2022/11/30 15:55:02;;;;;;;5.97;2.45;;;;;;;1.00;100.00;101065.78;1679648;85;21037;-70
2022/11/30 15:57:59;;;;;;;4.50;2.27;;;;;;;0.99;100.00;101072.03;1664582;86;21579;-70
2022/11/30 16:00:25;;;;;;;8.77;2.33;;;;;;;0.98;100.00;101077.84;1641897;87;21534;-70
